sensor_id;sensor_type;location;lat;lon;timestamp;pressure;altitude;pressure_sealevel;temperature;humidity
79203;BME280;68630;42.748;23.278;2024-01-15T00:01:44;94993.08;;;-5.47;77.53
79203;BME280;68630;42.748;23.278;2024-01-15T00:04:55;94988.05;;;-5.38;78.02
79203;BME280;68630;42.748;23.278;2024-01-15T00:07:23;94987.22;;;-5.40;78.46
79203;BME280;68630;42.748;23.278;2024-01-15T00:09:51;94990.69;;;-5.39;77.66
79203;BME280;68630;42.748;23.278;2024-01-15T00:12:18;94976.94;;;-5.56;79.77
79203;BME280;68630;42.748;23.278;2024-01-15T00:14:46;94982.73;;;-5.35;79.20
79203;BME280;68630;42.748;23.278;2024-01-15T00:17:37;94981.92;;;-5.50;79.09
79203;BME280;68630;42.748;23.278;2024-01-15T00:20:07;94985.52;;;-5.69;78.09
79203;BME280;68630;42.748;23.278;2024-01-15T00:22:35;94985.39;;;-5.65;77.36
79203;BME280;68630;42.748;23.278;2024-01-15T00:25:22;94988.61;;;-5.56;77.14
79203;BME280;68630;42.748;23.278;2024-01-15T00:30:36;94988.83;;;-5.64;77.46
79203;BME280;68630;42.748;23.278;2024-01-15T00:33:14;94992.59;;;-5.59;78.15
79203;BME280;68630;42.748;23.278;2024-01-15T00:36:01;94994.05;;;-5.79;77.82
79203;BME280;68630;42.748;23.278;2024-01-15T00:38:52;94996.11;;;-5.75;78.11
79203;BME280;68630;42.748;23.278;2024-01-15T00:41:23;94991.13;;;-5.68;78.02
79203;BME280;68630;42.748;23.278;2024-01-15T00:44:11;94991.16;;;-5.55;78.43
79203;BME280;68630;42.748;23.278;2024-01-15T00:46:59;94986.29;;;-5.37;78.72
79203;BME280;68630;42.748;23.278;2024-01-15T00:49:29;94986.40;;;-5.27;78.84
79203;BME280;68630;42.748;23.278;2024-01-15T00:51:58;94985.02;;;-5.24;79.20
79203;BME280;68630;42.748;23.278;2024-01-15T00:57:16;94986.80;;;-5.39;76.10
79203;BME280;68630;42.748;23.278;2024-01-15T00:59:48;94909.08;;;-5.97;75.53
79203;BME280;68630;42.748;23.278;2024-01-15T01:02:34;94988.11;;;-5.54;76.43
79203;BME280;68630;42.748;23.278;2024-01-15T01:05:02;94971.50;;;-5.62;77.51
79203;BME280;68630;42.748;23.278;2024-01-15T01:07:51;94977.78;;;-5.56;78.05
79203;BME280;68630;42.748;23.278;2024-01-15T01:10:21;94979.59;;;-5.73;78.31
79203;BME280;68630;42.748;23.278;2024-01-15T01:13:08;94979.87;;;-5.54;78.55
79203;BME280;68630;42.748;23.278;2024-01-15T01:15:37;94976.69;;;-5.49;78.24
79203;BME280;68630;42.748;23.278;2024-01-15T01:18:12;94975.41;;;-5.35;77.92
79203;BME280;68630;42.748;23.278;2024-01-15T01:23:53;94978.45;;;-5.64;77.85
79203;BME280;68630;42.748;23.278;2024-01-15T01:26:28;94963.52;;;-5.71;75.77
79203;BME280;68630;42.748;23.278;2024-01-15T01:28:58;94970.30;;;-5.95;76.89
79203;BME280;68630;42.748;23.278;2024-01-15T01:31:58;94962.94;;;-5.94;77.72
79203;BME280;68630;42.748;23.278;2024-01-15T01:34:44;94963.14;;;-6.00;77.71
79203;BME280;68630;42.748;23.278;2024-01-15T01:40:15;94957.34;;;-5.95;78.88
79203;BME280;68630;42.748;23.278;2024-01-15T01:45:27;94951.59;;;-6.03;78.87
79203;BME280;68630;42.748;23.278;2024-01-15T01:48:04;94944.70;;;-5.91;78.89
79203;BME280;68630;42.748;23.278;2024-01-15T01:50:45;94949.17;;;-6.09;78.57
79203;BME280;68630;42.748;23.278;2024-01-15T01:53:13;94946.00;;;-5.91;78.57
79203;BME280;68630;42.748;23.278;2024-01-15T01:55:42;94946.13;;;-5.80;78.57
79203;BME280;68630;42.748;23.278;2024-01-15T01:58:12;94944.08;;;-5.71;78.00
79203;BME280;68630;42.748;23.278;2024-01-15T02:00:41;94936.41;;;-5.60;77.62
79203;BME280;68630;42.748;23.278;2024-01-15T02:03:11;94932.69;;;-5.65;76.84
79203;BME280;68630;42.748;23.278;2024-01-15T02:05:42;94925.72;;;-5.78;76.73
79203;BME280;68630;42.748;23.278;2024-01-15T02:08:14;94930.99;;;-5.81;76.77
79203;BME280;68630;42.748;23.278;2024-01-15T02:10:42;94939.81;;;-5.87;76.95
79203;BME280;68630;42.748;23.278;2024-01-15T02:13:10;94942.23;;;-5.80;77.35
79203;BME280;68630;42.748;23.278;2024-01-15T02:15:39;94938.55;;;-5.73;79.50
79203;BME280;68630;42.748;23.278;2024-01-15T02:18:07;94924.91;;;-5.65;78.62
79203;BME280;68630;42.748;23.278;2024-01-15T02:20:39;94914.59;;;-5.81;77.52
79203;BME280;68630;42.748;23.278;2024-01-15T02:23:08;94918.23;;;-6.00;76.03
79203;BME280;68630;42.748;23.278;2024-01-15T02:25:47;94895.16;;;-6.08;74.92
79203;BME280;68630;42.748;23.278;2024-01-15T02:28:16;94873.25;;;-6.13;76.97
79203;BME280;68630;42.748;23.278;2024-01-15T02:30:44;94881.15;;;-6.03;79.07
79203;BME280;68630;42.748;23.278;2024-01-15T02:33:13;94885.97;;;-6.05;80.30
79203;BME280;68630;42.748;23.278;2024-01-15T02:35:42;94881.83;;;-6.11;80.89
79203;BME280;68630;42.748;23.278;2024-01-15T02:48:06;94885.48;;;-5.76;77.76
79203;BME280;68630;42.748;23.278;2024-01-15T02:50:34;94893.66;;;-5.89;77.79
79203;BME280;68630;42.748;23.278;2024-01-15T02:53:07;94891.27;;;-6.23;78.54
79203;BME280;68630;42.748;23.278;2024-01-15T02:55:36;94890.06;;;-6.26;79.74
79203;BME280;68630;42.748;23.278;2024-01-15T02:58:05;94890.56;;;-6.13;79.13
79203;BME280;68630;42.748;23.278;2024-01-15T03:00:34;94887.18;;;-6.17;79.07
79203;BME280;68630;42.748;23.278;2024-01-15T03:03:11;94877.30;;;-6.47;81.05
79203;BME280;68630;42.748;23.278;2024-01-15T03:05:40;94874.09;;;-6.27;79.84
79203;BME280;68630;42.748;23.278;2024-01-15T03:08:08;94871.05;;;-6.25;79.64
79203;BME280;68630;42.748;23.278;2024-01-15T03:10:38;94877.14;;;-6.28;79.37
79203;BME280;68630;42.748;23.278;2024-01-15T03:13:06;94877.14;;;-6.28;79.33
79203;BME280;68630;42.748;23.278;2024-01-15T03:15:33;94872.42;;;-6.28;79.18
79203;BME280;68630;42.748;23.278;2024-01-15T03:18:01;94871.97;;;-6.28;78.89
79203;BME280;68630;42.748;23.278;2024-01-15T03:20:29;94874.42;;;-6.38;78.91
79203;BME280;68630;42.748;23.278;2024-01-15T03:22:57;94869.25;;;-6.23;78.42
79203;BME280;68630;42.748;23.278;2024-01-15T03:25:28;94862.73;;;-6.22;78.42
79203;BME280;68630;42.748;23.278;2024-01-15T03:27:57;94858.34;;;-6.19;78.29
79203;BME280;68630;42.748;23.278;2024-01-15T03:30:24;94857.50;;;-6.20;78.15
79203;BME280;68630;42.748;23.278;2024-01-15T03:32:52;94860.22;;;-6.25;78.04
79203;BME280;68630;42.748;23.278;2024-01-15T03:35:24;94857.05;;;-6.34;78.01
79203;BME280;68630;42.748;23.278;2024-01-15T03:37:54;94859.27;;;-6.22;77.94
79203;BME280;68630;42.748;23.278;2024-01-15T03:40:25;94860.13;;;-6.22;78.03
79203;BME280;68630;42.748;23.278;2024-01-15T03:42:57;94864.05;;;-6.08;78.48
79203;BME280;68630;42.748;23.278;2024-01-15T03:45:25;94858.66;;;-5.89;77.37
79203;BME280;68630;42.748;23.278;2024-01-15T03:47:52;94859.75;;;-5.69;76.45
79203;BME280;68630;42.748;23.278;2024-01-15T03:50:20;94859.98;;;-5.62;76.26
79203;BME280;68630;42.748;23.278;2024-01-15T03:52:47;94867.08;;;-5.55;76.17
79203;BME280;68630;42.748;23.278;2024-01-15T03:55:15;94863.98;;;-5.40;75.68
79203;BME280;68630;42.748;23.278;2024-01-15T03:57:44;94855.80;;;-5.28;74.81
79203;BME280;68630;42.748;23.278;2024-01-15T04:00:15;94856.92;;;-5.23;74.26
79203;BME280;68630;42.748;23.278;2024-01-15T04:02:45;94851.45;;;-5.27;74.63
79203;BME280;68630;42.748;23.278;2024-01-15T04:05:12;94847.70;;;-5.18;74.39
79203;BME280;68630;42.748;23.278;2024-01-15T04:07:43;94839.17;;;-5.22;74.00
79203;BME280;68630;42.748;23.278;2024-01-15T04:10:11;94828.38;;;-5.23;73.96
79203;BME280;68630;42.748;23.278;2024-01-15T04:12:40;94834.44;;;-5.22;74.04
79203;BME280;68630;42.748;23.278;2024-01-15T04:15:09;94840.11;;;-5.24;73.98
79203;BME280;68630;42.748;23.278;2024-01-15T04:17:36;94840.44;;;-5.34;74.62
79203;BME280;68630;42.748;23.278;2024-01-15T04:20:10;94837.64;;;-5.28;74.72
79203;BME280;68630;42.748;23.278;2024-01-15T04:22:40;94839.92;;;-5.32;74.92
79203;BME280;68630;42.748;23.278;2024-01-15T04:25:12;94837.46;;;-5.23;74.86
79203;BME280;68630;42.748;23.278;2024-01-15T04:27:45;94828.86;;;-5.37;75.47
79203;BME280;68630;42.748;23.278;2024-01-15T04:30:21;94834.37;;;-5.46;75.86
79203;BME280;68630;42.748;23.278;2024-01-15T04:32:51;94827.13;;;-5.36;75.92
79203;BME280;68630;42.748;23.278;2024-01-15T04:35:20;94827.65;;;-5.65;77.43
79203;BME280;68630;42.748;23.278;2024-01-15T04:37:48;94828.52;;;-5.39;76.55
79203;BME280;68630;42.748;23.278;2024-01-15T04:40:15;94828.95;;;-5.40;76.42
79203;BME280;68630;42.748;23.278;2024-01-15T04:43:23;94831.73;;;-5.58;77.44
79203;BME280;68630;42.748;23.278;2024-01-15T04:45:53;94833.91;;;-5.46;77.37
79203;BME280;68630;42.748;23.278;2024-01-15T04:48:22;94819.34;;;-5.36;76.87
79203;BME280;68630;42.748;23.278;2024-01-15T04:50:51;94822.22;;;-5.32;76.94
79203;BME280;68630;42.748;23.278;2024-01-15T04:53:19;94821.21;;;-5.53;77.75
79203;BME280;68630;42.748;23.278;2024-01-15T04:55:52;94820.01;;;-5.56;77.91
79203;BME280;68630;42.748;23.278;2024-01-15T04:58:20;94819.43;;;-5.26;77.72
79203;BME280;68630;42.748;23.278;2024-01-15T05:00:49;94806.95;;;-4.67;76.21
79203;BME280;68630;42.748;23.278;2024-01-15T05:03:18;94811.95;;;-4.51;74.62
79203;BME280;68630;42.748;23.278;2024-01-15T05:05:48;94809.30;;;-4.61;74.72
79203;BME280;68630;42.748;23.278;2024-01-15T05:08:22;94809.66;;;-4.82;75.56
79203;BME280;68630;42.748;23.278;2024-01-15T05:10:53;94807.34;;;-5.02;76.86
79203;BME280;68630;42.748;23.278;2024-01-15T05:13:21;94799.98;;;-4.91;76.36
79203;BME280;68630;42.748;23.278;2024-01-15T05:15:53;94804.67;;;-4.89;75.71
79203;BME280;68630;42.748;23.278;2024-01-15T05:18:20;94787.98;;;-4.93;76.34
79203;BME280;68630;42.748;23.278;2024-01-15T05:20:49;94799.72;;;-4.95;76.05
79203;BME280;68630;42.748;23.278;2024-01-15T05:25:59;94806.26;;;-4.96;76.23
79203;BME280;68630;42.748;23.278;2024-01-15T05:28:30;94800.76;;;-5.00;76.82
79203;BME280;68630;42.748;23.278;2024-01-15T05:30:58;94800.72;;;-4.87;76.57
79203;BME280;68630;42.748;23.278;2024-01-15T05:33:29;94799.11;;;-4.78;76.36
79203;BME280;68630;42.748;23.278;2024-01-15T05:36:01;94791.12;;;-4.73;76.34
79203;BME280;68630;42.748;23.278;2024-01-15T05:38:33;94786.44;;;-4.63;76.01
79203;BME280;68630;42.748;23.278;2024-01-15T05:41:11;94777.39;;;-4.53;76.00
79203;BME280;68630;42.748;23.278;2024-01-15T05:43:41;94769.55;;;-4.63;76.40
79203;BME280;68630;42.748;23.278;2024-01-15T05:46:09;94777.97;;;-4.57;76.47
79203;BME280;68630;42.748;23.278;2024-01-15T05:48:39;94767.90;;;-4.54;76.04
79203;BME280;68630;42.748;23.278;2024-01-15T05:51:08;94763.05;;;-4.52;75.72
79203;BME280;68630;42.748;23.278;2024-01-15T05:53:38;94763.11;;;-4.53;75.61
79203;BME280;68630;42.748;23.278;2024-01-15T05:56:12;94768.88;;;-4.68;76.49
79203;BME280;68630;42.748;23.278;2024-01-15T05:58:43;94771.53;;;-4.70;75.88
79203;BME280;68630;42.748;23.278;2024-01-15T06:01:11;94773.34;;;-4.72;76.44
79203;BME280;68630;42.748;23.278;2024-01-15T06:03:39;94778.65;;;-4.63;76.32
79203;BME280;68630;42.748;23.278;2024-01-15T06:06:11;94788.63;;;-4.53;75.93
79203;BME280;68630;42.748;23.278;2024-01-15T06:08:38;94790.02;;;-4.78;76.84
79203;BME280;68630;42.748;23.278;2024-01-15T06:11:07;94783.28;;;-4.72;76.92
79203;BME280;68630;42.748;23.278;2024-01-15T06:13:51;94788.20;;;-4.52;76.72
79203;BME280;68630;42.748;23.278;2024-01-15T06:16:15;94778.11;;;-4.38;76.09
79203;BME280;68630;42.748;23.278;2024-01-15T06:18:48;94777.02;;;-4.32;75.92
79203;BME280;68630;42.748;23.278;2024-01-15T06:21:16;94767.52;;;-4.21;75.46
79203;BME280;68630;42.748;23.278;2024-01-15T06:23:46;94765.98;;;-4.05;75.42
79203;BME280;68630;42.748;23.278;2024-01-15T06:26:14;94756.37;;;-4.35;74.60
79203;BME280;68630;42.748;23.278;2024-01-15T06:28:43;94761.19;;;-4.04;74.01
79203;BME280;68630;42.748;23.278;2024-01-15T06:31:10;94768.20;;;-3.84;73.28
79203;BME280;68630;42.748;23.278;2024-01-15T06:33:38;94775.68;;;-3.66;74.57
79203;BME280;68630;42.748;23.278;2024-01-15T06:36:15;94776.69;;;-3.48;72.95
79203;BME280;68630;42.748;23.278;2024-01-15T06:38:44;94778.48;;;-3.29;72.06
79203;BME280;68630;42.748;23.278;2024-01-15T06:41:15;94766.44;;;-3.01;71.28
79203;BME280;68630;42.748;23.278;2024-01-15T06:43:45;94767.19;;;-2.89;71.17
79203;BME280;68630;42.748;23.278;2024-01-15T06:46:34;94772.28;;;-2.67;71.00
79203;BME280;68630;42.748;23.278;2024-01-15T06:48:55;94768.41;;;-2.58;69.04
79203;BME280;68630;42.748;23.278;2024-01-15T06:51:26;94771.15;;;-2.61;70.55
79203;BME280;68630;42.748;23.278;2024-01-15T06:53:54;94772.75;;;-2.29;69.45
79203;BME280;68630;42.748;23.278;2024-01-15T06:56:26;94771.74;;;-2.27;69.27
79203;BME280;68630;42.748;23.278;2024-01-15T06:58:58;94783.99;;;-2.10;69.11
79203;BME280;68630;42.748;23.278;2024-01-15T07:01:27;94774.22;;;-1.87;67.94
79203;BME280;68630;42.748;23.278;2024-01-15T07:04:05;94790.33;;;-1.96;68.28
79203;BME280;68630;42.748;23.278;2024-01-15T07:06:28;94786.56;;;-1.91;68.10
79203;BME280;68630;42.748;23.278;2024-01-15T07:08:59;94781.11;;;-2.03;68.83
79203;BME280;68630;42.748;23.278;2024-01-15T07:11:34;94779.34;;;-2.03;68.90
79203;BME280;68630;42.748;23.278;2024-01-15T07:14:00;94773.17;;;-1.83;67.94
79203;BME280;68630;42.748;23.278;2024-01-15T07:16:33;94778.00;;;-1.75;67.41
79203;BME280;68630;42.748;23.278;2024-01-15T07:19:02;94784.23;;;-1.78;68.12
79203;BME280;68630;42.748;23.278;2024-01-15T07:21:33;94784.61;;;-1.68;68.39
79203;BME280;68630;42.748;23.278;2024-01-15T07:24:08;94785.70;;;-1.63;66.83
79203;BME280;68630;42.748;23.278;2024-01-15T07:26:38;94781.83;;;-1.82;67.38
79203;BME280;68630;42.748;23.278;2024-01-15T07:29:06;94776.40;;;-1.78;68.39
79203;BME280;68630;42.748;23.278;2024-01-15T07:31:34;94781.28;;;-1.89;68.69
79203;BME280;68630;42.748;23.278;2024-01-15T07:34:02;94769.62;;;-1.73;67.92
79203;BME280;68630;42.748;23.278;2024-01-15T07:36:31;94769.88;;;-1.69;68.20
79203;BME280;68630;42.748;23.278;2024-01-15T07:39:10;94779.64;;;-1.64;67.64
79203;BME280;68630;42.748;23.278;2024-01-15T07:41:42;94772.48;;;-1.78;67.90
79203;BME280;68630;42.748;23.278;2024-01-15T07:44:08;94777.28;;;-1.96;69.57
79203;BME280;68630;42.748;23.278;2024-01-15T07:46:41;94768.77;;;-2.28;71.85
79203;BME280;68630;42.748;23.278;2024-01-15T07:49:11;94775.70;;;-2.09;71.51
79203;BME280;68630;42.748;23.278;2024-01-15T07:51:46;94770.69;;;-1.95;71.27
79203;BME280;68630;42.748;23.278;2024-01-15T07:54:17;94774.27;;;-1.97;71.00
79203;BME280;68630;42.748;23.278;2024-01-15T07:59:43;94754.72;;;-1.89;70.56
79203;BME280;68630;42.748;23.278;2024-01-15T08:02:13;94733.16;;;-1.92;70.68
79203;BME280;68630;42.748;23.278;2024-01-15T08:04:41;94750.98;;;-1.83;70.98
79203;BME280;68630;42.748;23.278;2024-01-15T08:07:12;94755.05;;;-1.86;71.47
79203;BME280;68630;42.748;23.278;2024-01-15T08:09:39;94767.38;;;-1.98;71.36
79203;BME280;68630;42.748;23.278;2024-01-15T08:12:13;94772.50;;;-1.52;70.52
79203;BME280;68630;42.748;23.278;2024-01-15T08:14:48;94771.34;;;-1.11;68.17
79203;BME280;68630;42.748;23.278;2024-01-15T08:17:14;94768.66;;;-0.76;67.29
79203;BME280;68630;42.748;23.278;2024-01-15T08:19:48;94767.23;;;-0.32;64.92
79203;BME280;68630;42.748;23.278;2024-01-15T08:22:15;94779.51;;;-0.10;63.31
79203;BME280;68630;42.748;23.278;2024-01-15T08:24:44;94780.06;;;0.27;62.41
79203;BME280;68630;42.748;23.278;2024-01-15T08:27:15;94775.83;;;0.64;61.52
79203;BME280;68630;42.748;23.278;2024-01-15T08:29:42;94762.18;;;0.73;60.97
79203;BME280;68630;42.748;23.278;2024-01-15T08:32:13;94765.61;;;0.97;59.88
79203;BME280;68630;42.748;23.278;2024-01-15T08:34:43;94749.05;;;1.18;59.06
79203;BME280;68630;42.748;23.278;2024-01-15T08:37:12;94752.59;;;2.16;58.11
79203;BME280;68630;42.748;23.278;2024-01-15T08:39:39;94753.44;;;3.73;52.92
79203;BME280;68630;42.748;23.278;2024-01-15T08:42:09;94733.47;;;3.07;53.19
79203;BME280;68630;42.748;23.278;2024-01-15T08:44:37;94754.95;;;2.80;53.44
79203;BME280;68630;42.748;23.278;2024-01-15T08:47:07;94746.62;;;2.06;55.75
79203;BME280;68630;42.748;23.278;2024-01-15T08:49:37;94747.06;;;1.79;56.93
79203;BME280;68630;42.748;23.278;2024-01-15T08:52:07;94743.80;;;1.61;56.89
79203;BME280;68630;42.748;23.278;2024-01-15T08:54:35;94733.78;;;1.39;57.21
79203;BME280;68630;42.748;23.278;2024-01-15T08:57:03;94716.55;;;0.91;59.12
79203;BME280;68630;42.748;23.278;2024-01-15T08:59:32;94719.35;;;0.96;59.38
79203;BME280;68630;42.748;23.278;2024-01-15T09:02:00;94726.59;;;1.42;58.41
79203;BME280;68630;42.748;23.278;2024-01-15T09:04:27;94723.58;;;1.05;60.02
79203;BME280;68630;42.748;23.278;2024-01-15T09:06:55;94712.73;;;1.19;59.86
79203;BME280;68630;42.748;23.278;2024-01-15T09:09:26;94695.20;;;1.26;59.96
79203;BME280;68630;42.748;23.278;2024-01-15T09:11:55;94699.05;;;1.28;60.01
79203;BME280;68630;42.748;23.278;2024-01-15T09:14:23;94685.15;;;1.62;58.85
79203;BME280;68630;42.748;23.278;2024-01-15T09:16:52;94691.80;;;2.22;57.92
79203;BME280;68630;42.748;23.278;2024-01-15T09:19:20;94670.36;;;2.35;57.98
79203;BME280;68630;42.748;23.278;2024-01-15T09:21:47;94686.06;;;3.71;54.87
79203;BME280;68630;42.748;23.278;2024-01-15T09:24:17;94670.33;;;6.68;49.87
79203;BME280;68630;42.748;23.278;2024-01-15T09:26:45;94661.25;;;7.95;43.81
79203;BME280;68630;42.748;23.278;2024-01-15T09:29:13;94666.72;;;7.63;43.75
79203;BME280;68630;42.748;23.278;2024-01-15T09:31:42;94652.02;;;6.76;45.68
79203;BME280;68630;42.748;23.278;2024-01-15T09:34:10;94660.33;;;8.60;42.76
79203;BME280;68630;42.748;23.278;2024-01-15T09:36:40;94634.67;;;9.65;39.34
79203;BME280;68630;42.748;23.278;2024-01-15T09:39:10;94651.65;;;9.54;40.09
79203;BME280;68630;42.748;23.278;2024-01-15T09:41:38;94640.44;;;10.16;39.97
79203;BME280;68630;42.748;23.278;2024-01-15T09:44:05;94637.85;;;10.92;36.98
79203;BME280;68630;42.748;23.278;2024-01-15T09:46:57;94632.30;;;11.30;37.05
79203;BME280;68630;42.748;23.278;2024-01-15T09:49:06;94598.08;;;10.73;36.37
79203;BME280;68630;42.748;23.278;2024-01-15T09:51:36;94603.39;;;11.13;36.97
79203;BME280;68630;42.748;23.278;2024-01-15T09:54:04;94603.05;;;12.07;35.06
79203;BME280;68630;42.748;23.278;2024-01-15T09:56:31;94591.38;;;13.64;32.52
79203;BME280;68630;42.748;23.278;2024-01-15T09:59:00;94576.64;;;12.96;32.74
79203;BME280;68630;42.748;23.278;2024-01-15T10:01:33;94598.00;;;11.91;34.18
79203;BME280;68630;42.748;23.278;2024-01-15T10:03:58;94598.05;;;11.39;36.36
79203;BME280;68630;42.748;23.278;2024-01-15T10:06:28;94596.32;;;12.74;33.26
79203;BME280;68630;42.748;23.278;2024-01-15T10:08:59;94586.95;;;12.99;32.97
79203;BME280;68630;42.748;23.278;2024-01-15T10:11:26;94559.70;;;13.28;31.86
79203;BME280;68630;42.748;23.278;2024-01-15T10:13:54;94556.06;;;12.22;32.96
79203;BME280;68630;42.748;23.278;2024-01-15T10:16:23;94555.38;;;11.00;34.40
79203;BME280;68630;42.748;23.278;2024-01-15T10:18:54;94556.34;;;10.01;35.18
79203;BME280;68630;42.748;23.278;2024-01-15T10:24:37;94535.11;;;11.85;34.73
79203;BME280;68630;42.748;23.278;2024-01-15T10:27:05;94540.06;;;12.96;33.17
79203;BME280;68630;42.748;23.278;2024-01-15T10:29:47;94537.67;;;11.94;34.76
79203;BME280;68630;42.748;23.278;2024-01-15T10:32:12;94537.89;;;12.42;33.99
79203;BME280;68630;42.748;23.278;2024-01-15T10:34:41;94536.92;;;12.60;33.25
79203;BME280;68630;42.748;23.278;2024-01-15T10:37:10;94527.98;;;11.47;34.56
79203;BME280;68630;42.748;23.278;2024-01-15T10:39:51;94522.50;;;11.52;33.58
79203;BME280;68630;42.748;23.278;2024-01-15T10:42:18;94518.91;;;12.49;32.05
79203;BME280;68630;42.748;23.278;2024-01-15T10:44:46;94515.95;;;11.08;34.38
79203;BME280;68630;42.748;23.278;2024-01-15T10:47:14;94517.69;;;10.65;35.70
79203;BME280;68630;42.748;23.278;2024-01-15T10:49:41;94509.61;;;9.99;36.42
79203;BME280;68630;42.748;23.278;2024-01-15T10:52:10;94511.66;;;8.76;38.58
79203;BME280;68630;42.748;23.278;2024-01-15T10:54:39;94499.97;;;8.49;39.33
79203;BME280;68630;42.748;23.278;2024-01-15T10:57:07;94491.94;;;8.35;39.53
79203;BME280;68630;42.748;23.278;2024-01-15T10:59:41;94510.78;;;8.32;39.85
79203;BME280;68630;42.748;23.278;2024-01-15T11:02:07;94502.73;;;8.38;41.13
79203;BME280;68630;42.748;23.278;2024-01-15T11:04:37;94492.67;;;8.08;40.89
79203;BME280;68630;42.748;23.278;2024-01-15T11:07:05;94474.39;;;7.76;41.79
79203;BME280;68630;42.748;23.278;2024-01-15T11:09:34;94477.72;;;8.36;40.95
79203;BME280;68630;42.748;23.278;2024-01-15T11:12:13;94476.64;;;9.00;39.22
79203;BME280;68630;42.748;23.278;2024-01-15T11:14:47;94466.84;;;9.42;38.46
79203;BME280;68630;42.748;23.278;2024-01-15T11:17:16;94464.16;;;9.56;37.51
79203;BME280;68630;42.748;23.278;2024-01-15T11:19:46;94454.35;;;9.38;37.07
79203;BME280;68630;42.748;23.278;2024-01-15T11:25:14;94457.70;;;8.85;37.48
79203;BME280;68630;42.748;23.278;2024-01-15T11:27:43;94455.74;;;8.20;38.24
79203;BME280;68630;42.748;23.278;2024-01-15T11:30:13;94453.95;;;7.62;39.47
79203;BME280;68630;42.748;23.278;2024-01-15T11:32:40;94460.52;;;7.78;39.22
79203;BME280;68630;42.748;23.278;2024-01-15T11:35:09;94449.31;;;7.80;39.40
79203;BME280;68630;42.748;23.278;2024-01-15T11:42:54;94440.89;;;7.26;40.38
79203;BME280;68630;42.748;23.278;2024-01-15T11:45:21;94438.90;;;7.34;40.56
79203;BME280;68630;42.748;23.278;2024-01-15T11:54:25;94431.79;;;8.02;39.36
79203;BME280;68630;42.748;23.278;2024-01-15T11:56:55;94420.00;;;7.52;40.35
79203;BME280;68630;42.748;23.278;2024-01-15T11:59:23;94418.13;;;7.04;41.48
79203;BME280;68630;42.748;23.278;2024-01-15T12:01:53;94409.38;;;6.63;42.28
79203;BME280;68630;42.748;23.278;2024-01-15T12:04:21;94415.30;;;6.45;43.04
79203;BME280;68630;42.748;23.278;2024-01-15T12:06:49;94419.00;;;6.33;43.58
79203;BME280;68630;42.748;23.278;2024-01-15T12:09:20;94422.08;;;6.23;44.03
79203;BME280;68630;42.748;23.278;2024-01-15T12:12:00;94423.91;;;6.16;44.23
79203;BME280;68630;42.748;23.278;2024-01-15T12:14:18;94411.32;;;6.14;44.39
79203;BME280;68630;42.748;23.278;2024-01-15T12:16:46;94401.94;;;6.16;44.53
79203;BME280;68630;42.748;23.278;2024-01-15T12:19:15;94398.62;;;6.08;44.46
79203;BME280;68630;42.748;23.278;2024-01-15T12:21:45;94397.66;;;6.09;44.63
79203;BME280;68630;42.748;23.278;2024-01-15T12:24:14;94386.34;;;6.13;44.62
79203;BME280;68630;42.748;23.278;2024-01-15T12:26:42;94397.41;;;6.12;44.79
79203;BME280;68630;42.748;23.278;2024-01-15T12:29:11;94384.20;;;6.12;44.93
79203;BME280;68630;42.748;23.278;2024-01-15T12:31:39;94386.89;;;6.07;45.36
79203;BME280;68630;42.748;23.278;2024-01-15T12:34:06;94383.31;;;6.17;45.16
79203;BME280;68630;42.748;23.278;2024-01-15T12:36:34;94372.75;;;6.33;45.00
79203;BME280;68630;42.748;23.278;2024-01-15T12:39:01;94362.95;;;6.39;44.72
79203;BME280;68630;42.748;23.278;2024-01-15T12:41:29;94358.47;;;6.30;45.43
79203;BME280;68630;42.748;23.278;2024-01-15T12:43:57;94355.63;;;6.27;45.48
79203;BME280;68630;42.748;23.278;2024-01-15T12:46:24;94360.59;;;6.21;45.84
79203;BME280;68630;42.748;23.278;2024-01-15T12:48:52;94360.55;;;6.26;45.67
79203;BME280;68630;42.748;23.278;2024-01-15T12:51:24;94356.70;;;6.25;45.94
79203;BME280;68630;42.748;23.278;2024-01-15T12:53:50;94358.73;;;6.27;45.84
79203;BME280;68630;42.748;23.278;2024-01-15T12:56:17;94366.33;;;6.10;46.28
79203;BME280;68630;42.748;23.278;2024-01-15T12:59:11;94359.98;;;5.80;47.15
79203;BME280;68630;42.748;23.278;2024-01-15T13:01:38;94346.28;;;5.87;46.98
79203;BME280;68630;42.748;23.278;2024-01-15T13:04:08;94335.09;;;5.89;46.85
79203;BME280;68630;42.748;23.278;2024-01-15T13:06:39;94347.93;;;5.88;47.07
79203;BME280;68630;42.748;23.278;2024-01-15T13:09:05;94334.03;;;5.86;46.86
79203;BME280;68630;42.748;23.278;2024-01-15T13:11:35;94329.80;;;5.73;46.88
79203;BME280;68630;42.748;23.278;2024-01-15T13:14:03;94343.92;;;5.57;47.75
79203;BME280;68630;42.748;23.278;2024-01-15T13:16:40;94356.67;;;5.04;50.28
79203;BME280;68630;42.748;23.278;2024-01-15T13:18:59;94332.80;;;5.00;50.27
79203;BME280;68630;42.748;23.278;2024-01-15T13:21:27;94329.43;;;5.03;49.68
79203;BME280;68630;42.748;23.278;2024-01-15T13:23:54;94336.70;;;5.17;49.49
79203;BME280;68630;42.748;23.278;2024-01-15T13:26:22;94331.23;;;5.03;50.05
79203;BME280;68630;42.748;23.278;2024-01-15T13:28:51;94332.01;;;4.94;50.15
79203;BME280;68630;42.748;23.278;2024-01-15T13:31:19;94331.15;;;4.93;50.87
79203;BME280;68630;42.748;23.278;2024-01-15T13:33:47;94316.55;;;4.89;50.28
79203;BME280;68630;42.748;23.278;2024-01-15T13:36:14;94334.52;;;4.90;50.20
79203;BME280;68630;42.748;23.278;2024-01-15T13:38:42;94332.47;;;4.93;50.28
79203;BME280;68630;42.748;23.278;2024-01-15T13:41:11;94318.55;;;5.02;49.73
79203;BME280;68630;42.748;23.278;2024-01-15T13:43:38;94297.53;;;5.06;49.63
79203;BME280;68630;42.748;23.278;2024-01-15T13:46:11;94316.91;;;5.17;49.39
79203;BME280;68630;42.748;23.278;2024-01-15T13:48:36;94320.87;;;5.17;50.00
79203;BME280;68630;42.748;23.278;2024-01-15T13:51:03;94320.53;;;5.16;50.25
79203;BME280;68630;42.748;23.278;2024-01-15T13:53:32;94322.43;;;5.19;50.23
79203;BME280;68630;42.748;23.278;2024-01-15T13:56:00;94302.64;;;5.19;50.53
79203;BME280;68630;42.748;23.278;2024-01-15T13:58:27;94305.94;;;5.06;50.68